sensor_id;sensor_type;location;lat;lon;timestamp;pressure;altitude;pressure_sealevel;temperature
69857;BMP280;57147;53.582;10.112;2022-10-16T00:04:01;100752.19;;;13.01
69857;BMP280;57147;53.582;10.112;2022-10-16T00:09:02;100776.66;;;13.03
69857;BMP280;57147;53.582;10.112;2022-10-16T00:14:06;100776.66;;;13.03
69857;BMP280;57147;53.582;10.112;2022-10-16T00:19:09;100774.44;;;12.97
69857;BMP280;57147;53.582;10.112;2022-10-16T00:24:10;100776.91;;;12.93
69857;BMP280;57147;53.582;10.112;2022-10-16T00:29:11;100783.94;;;12.89
69857;BMP280;57147;53.582;10.112;2022-10-16T00:34:14;100758.19;;;12.76
69857;BMP280;57147;53.582;10.112;2022-10-16T00:39:15;100771.00;;;12.74
69857;BMP280;57147;53.582;10.112;2022-10-16T00:44:46;100784.75;;;12.67
69857;BMP280;57147;53.582;10.112;2022-10-16T00:49:52;100784.13;;;12.62
69857;BMP280;57147;53.582;10.112;2022-10-16T00:54:54;100782.03;;;12.59
69857;BMP280;57147;53.582;10.112;2022-10-16T00:59:55;100785.19;;;12.61
69857;BMP280;57147;53.582;10.112;2022-10-16T01:04:59;100776.34;;;12.52
69857;BMP280;57147;53.582;10.112;2022-10-16T01:10:07;100795.47;;;12.54
69857;BMP280;57147;53.582;10.112;2022-10-16T01:15:17;100787.25;;;12.42
69857;BMP280;57147;53.582;10.112;2022-10-16T01:20:27;100807.59;;;12.38
69857;BMP280;57147;53.582;10.112;2022-10-16T01:25:36;100804.44;;;12.35
69857;BMP280;57147;53.582;10.112;2022-10-16T01:30:42;100803.84;;;12.39
69857;BMP280;57147;53.582;10.112;2022-10-16T01:35:46;100818.31;;;12.32
69857;BMP280;57147;53.582;10.112;2022-10-16T01:40:51;100803.66;;;12.21
69857;BMP280;57147;53.582;10.112;2022-10-16T01:45:56;100813.47;;;12.12
69857;BMP280;57147;53.582;10.112;2022-10-16T01:51:02;100813.06;;;12.05
69857;BMP280;57147;53.582;10.112;2022-10-16T01:56:06;100790.31;;;11.99
69857;BMP280;57147;53.582;10.112;2022-10-16T02:01:12;100804.09;;;11.87
69857;BMP280;57147;53.582;10.112;2022-10-16T02:06:14;100814.75;;;11.87
69857;BMP280;57147;53.582;10.112;2022-10-16T02:11:14;100819.78;;;11.89
69857;BMP280;57147;53.582;10.112;2022-10-16T02:16:17;100814.94;;;11.91
69857;BMP280;57147;53.582;10.112;2022-10-16T02:21:23;100813.88;;;11.92
69857;BMP280;57147;53.582;10.112;2022-10-16T02:26:28;100815.78;;;11.78
69857;BMP280;57147;53.582;10.112;2022-10-16T02:31:35;100817.75;;;11.59
69857;BMP280;57147;53.582;10.112;2022-10-16T02:36:39;100815.66;;;11.56
69857;BMP280;57147;53.582;10.112;2022-10-16T02:41:40;100829.44;;;11.44
69857;BMP280;57147;53.582;10.112;2022-10-16T02:46:44;100807.88;;;11.45
69857;BMP280;57147;53.582;10.112;2022-10-16T02:51:44;100815.94;;;11.40
69857;BMP280;57147;53.582;10.112;2022-10-16T02:56:45;100825.75;;;11.26
69857;BMP280;57147;53.582;10.112;2022-10-16T03:01:48;100812.75;;;11.11
69857;BMP280;57147;53.582;10.112;2022-10-16T03:06:48;100808.78;;;11.08
69857;BMP280;57147;53.582;10.112;2022-10-16T03:11:49;100827.59;;;11.12
69857;BMP280;57147;53.582;10.112;2022-10-16T03:16:52;100811.03;;;11.01
69857;BMP280;57147;53.582;10.112;2022-10-16T03:21:52;100807.66;;;10.96
69857;BMP280;57147;53.582;10.112;2022-10-16T03:26:53;100815.03;;;10.85
69857;BMP280;57147;53.582;10.112;2022-10-16T03:31:56;100823.78;;;10.86
69857;BMP280;57147;53.582;10.112;2022-10-16T03:36:57;100806.72;;;10.73
69857;BMP280;57147;53.582;10.112;2022-10-16T03:41:57;100824.94;;;10.80
69857;BMP280;57147;53.582;10.112;2022-10-16T03:47:00;100833.31;;;10.87
69857;BMP280;57147;53.582;10.112;2022-10-16T03:52:01;100835.47;;;10.85
69857;BMP280;57147;53.582;10.112;2022-10-16T03:57:02;100825.63;;;10.85
69857;BMP280;57147;53.582;10.112;2022-10-16T04:02:05;100826.66;;;10.89
69857;BMP280;57147;53.582;10.112;2022-10-16T04:07:05;100836.22;;;10.90
69857;BMP280;57147;53.582;10.112;2022-10-16T04:12:06;100842.47;;;10.81
69857;BMP280;57147;53.582;10.112;2022-10-16T04:17:09;100871.09;;;10.84
69857;BMP280;57147;53.582;10.112;2022-10-16T04:22:10;100869.00;;;10.81
69857;BMP280;57147;53.582;10.112;2022-10-16T04:27:10;100877.97;;;10.85
69857;BMP280;57147;53.582;10.112;2022-10-16T04:32:13;100877.97;;;10.85
69857;BMP280;57147;53.582;10.112;2022-10-16T04:37:14;100862.41;;;10.78
69857;BMP280;57147;53.582;10.112;2022-10-16T04:42:14;100876.19;;;10.80
69857;BMP280;57147;53.582;10.112;2022-10-16T04:47:18;100891.94;;;10.77
69857;BMP280;57147;53.582;10.112;2022-10-16T04:52:18;100863.47;;;10.58
69857;BMP280;57147;53.582;10.112;2022-10-16T04:57:19;100902.13;;;10.69
69857;BMP280;57147;53.582;10.112;2022-10-16T05:02:22;100898.16;;;10.67
69857;BMP280;57147;53.582;10.112;2022-10-16T05:07:23;100894.78;;;10.61
69857;BMP280;57147;53.582;10.112;2022-10-16T05:12:23;100902.25;;;10.59
69857;BMP280;57147;53.582;10.112;2022-10-16T05:17:26;100914.44;;;10.60
69857;BMP280;57147;53.582;10.112;2022-10-16T05:22:27;100913.41;;;10.56
69857;BMP280;57147;53.582;10.112;2022-10-16T05:27:28;100919.88;;;10.50
69857;BMP280;57147;53.582;10.112;2022-10-16T05:32:31;100918.88;;;10.46
69857;BMP280;57147;53.582;10.112;2022-10-16T05:37:31;100921.56;;;10.41
69857;BMP280;57147;53.582;10.112;2022-10-16T05:42:32;100925.28;;;10.40
69857;BMP280;57147;53.582;10.112;2022-10-16T05:47:35;100923.16;;;10.42
69857;BMP280;57147;53.582;10.112;2022-10-16T05:52:36;100916.94;;;10.52
69857;BMP280;57147;53.582;10.112;2022-10-16T05:57:36;100916.81;;;10.62
69857;BMP280;57147;53.582;10.112;2022-10-16T06:02:39;100924.47;;;10.63
69857;BMP280;57147;53.582;10.112;2022-10-16T06:07:40;100939.78;;;10.71
69857;BMP280;57147;53.582;10.112;2022-10-16T06:12:40;100927.28;;;10.72
69857;BMP280;57147;53.582;10.112;2022-10-16T06:17:44;100952.88;;;10.87
69857;BMP280;57147;53.582;10.112;2022-10-16T06:22:44;100950.06;;;10.97
69857;BMP280;57147;53.582;10.112;2022-10-16T06:27:45;100949.41;;;10.86
69857;BMP280;57147;53.582;10.112;2022-10-16T06:32:48;100953.13;;;10.85
69857;BMP280;57147;53.582;10.112;2022-10-16T06:37:48;100958.00;;;10.78
69857;BMP280;57147;53.582;10.112;2022-10-16T06:42:49;100968.28;;;10.85
69857;BMP280;57147;53.582;10.112;2022-10-16T06:47:52;100965.28;;;10.91
69857;BMP280;57147;53.582;10.112;2022-10-16T06:52:53;100956.94;;;10.98
69857;BMP280;57147;53.582;10.112;2022-10-16T06:57:53;100982.38;;;11.04
69857;BMP280;57147;53.582;10.112;2022-10-16T07:02:56;100987.03;;;11.12
69857;BMP280;57147;53.582;10.112;2022-10-16T07:07:57;100987.03;;;11.31
69857;BMP280;57147;53.582;10.112;2022-10-16T07:12:57;101005.16;;;11.61
69857;BMP280;57147;53.582;10.112;2022-10-16T07:18:00;101028.69;;;12.00
69857;BMP280;57147;53.582;10.112;2022-10-16T07:23:01;101027.09;;;12.31
69857;BMP280;57147;53.582;10.112;2022-10-16T07:28:02;101043.78;;;12.51
69857;BMP280;57147;53.582;10.112;2022-10-16T07:33:05;101027.31;;;12.49
69857;BMP280;57147;53.582;10.112;2022-10-16T07:38:05;101047.13;;;12.56
69857;BMP280;57147;53.582;10.112;2022-10-16T07:43:06;101063.16;;;12.65
69857;BMP280;57147;53.582;10.112;2022-10-16T07:48:09;101066.94;;;12.64
69857;BMP280;57147;53.582;10.112;2022-10-16T07:53:10;101070.47;;;12.87
69857;BMP280;57147;53.582;10.112;2022-10-16T07:58:11;101074.59;;;13.06
69857;BMP280;57147;53.582;10.112;2022-10-16T08:03:14;101084.63;;;13.23
69857;BMP280;57147;53.582;10.112;2022-10-16T08:08:16;101077.09;;;13.25
69857;BMP280;57147;53.582;10.112;2022-10-16T08:13:17;101093.53;;;13.18
69857;BMP280;57147;53.582;10.112;2022-10-16T08:18:20;101098.50;;;13.11
69857;BMP280;57147;53.582;10.112;2022-10-16T08:23:21;101109.53;;;13.18
69857;BMP280;57147;53.582;10.112;2022-10-16T08:28:22;101103.22;;;13.14
69857;BMP280;57147;53.582;10.112;2022-10-16T08:33:25;101109.44;;;13.24
69857;BMP280;57147;53.582;10.112;2022-10-16T08:38:26;101096.16;;;13.54
69857;BMP280;57147;53.582;10.112;2022-10-16T08:43:35;101108.34;;;14.14
69857;BMP280;57147;53.582;10.112;2022-10-16T08:48:46;101111.88;;;14.40
69857;BMP280;57147;53.582;10.112;2022-10-16T08:53:52;101106.47;;;14.62
69857;BMP280;57147;53.582;10.112;2022-10-16T08:58:54;101120.13;;;14.52
69857;BMP280;57147;53.582;10.112;2022-10-16T09:04:13;101155.34;;;14.54
69857;BMP280;57147;53.582;10.112;2022-10-16T09:09:39;101146.75;;;14.66
69857;BMP280;57147;53.582;10.112;2022-10-16T09:14:51;101158.34;;;15.01
69857;BMP280;57147;53.582;10.112;2022-10-16T09:20:00;101163.69;;;15.01
69857;BMP280;57147;53.582;10.112;2022-10-16T09:25:11;101165.28;;;15.10
69857;BMP280;57147;53.582;10.112;2022-10-16T09:30:14;101171.25;;;15.16
69857;BMP280;57147;53.582;10.112;2022-10-16T09:35:20;101172.53;;;15.44
69857;BMP280;57147;53.582;10.112;2022-10-16T09:40:26;101186.53;;;15.67
69857;BMP280;57147;53.582;10.112;2022-10-16T09:45:27;101179.47;;;15.80
69857;BMP280;57147;53.582;10.112;2022-10-16T09:50:30;101183.09;;;15.75
69857;BMP280;57147;53.582;10.112;2022-10-16T09:55:31;101198.69;;;15.64
69857;BMP280;57147;53.582;10.112;2022-10-16T10:00:31;101207.31;;;15.53
69857;BMP280;57147;53.582;10.112;2022-10-16T10:05:34;101221.19;;;15.55
69857;BMP280;57147;53.582;10.112;2022-10-16T10:10:40;101220.41;;;15.54
69857;BMP280;57147;53.582;10.112;2022-10-16T10:15:41;101229.38;;;15.67
69857;BMP280;57147;53.582;10.112;2022-10-16T10:20:45;101239.78;;;15.77
69857;BMP280;57147;53.582;10.112;2022-10-16T10:25:52;101237.56;;;15.88
69857;BMP280;57147;53.582;10.112;2022-10-16T10:31:01;101237.13;;;15.86
69857;BMP280;57147;53.582;10.112;2022-10-16T10:36:14;101238.19;;;16.10
69857;BMP280;57147;53.582;10.112;2022-10-16T10:46:48;101253.41;;;16.27
69857;BMP280;57147;53.582;10.112;2022-10-16T10:52:00;101250.13;;;16.77
69857;BMP280;57147;53.582;10.112;2022-10-16T10:57:03;101238.00;;;17.00
69857;BMP280;57147;53.582;10.112;2022-10-16T11:02:15;101256.66;;;16.58
69857;BMP280;57147;53.582;10.112;2022-10-16T11:07:25;101248.19;;;16.48
69857;BMP280;57147;53.582;10.112;2022-10-16T11:12:29;101261.19;;;16.67
69857;BMP280;57147;53.582;10.112;2022-10-16T11:17:33;101266.91;;;16.56
69857;BMP280;57147;53.582;10.112;2022-10-16T11:22:40;101265.94;;;16.70
69857;BMP280;57147;53.582;10.112;2022-10-16T11:27:45;101258.13;;;16.85
69857;BMP280;57147;53.582;10.112;2022-10-16T11:32:54;101279.28;;;17.16
69857;BMP280;57147;53.582;10.112;2022-10-16T11:38:02;101281.00;;;17.41
69857;BMP280;57147;53.582;10.112;2022-10-16T11:43:12;101292.78;;;17.28
69857;BMP280;57147;53.582;10.112;2022-10-16T11:48:21;101294.78;;;17.40
69857;BMP280;57147;53.582;10.112;2022-10-16T11:53:34;101298.28;;;17.32
69857;BMP280;57147;53.582;10.112;2022-10-16T11:58:43;101313.06;;;17.17
69857;BMP280;57147;53.582;10.112;2022-10-16T12:03:58;101317.75;;;17.20
69857;BMP280;57147;53.582;10.112;2022-10-16T12:09:03;101322.84;;;17.13
69857;BMP280;57147;53.582;10.112;2022-10-16T12:14:05;101327.97;;;16.97
69857;BMP280;57147;53.582;10.112;2022-10-16T12:19:14;101311.88;;;16.59
69857;BMP280;57147;53.582;10.112;2022-10-16T12:24:30;101338.78;;;17.47
69857;BMP280;57147;53.582;10.112;2022-10-16T12:29:35;101343.03;;;17.48
69857;BMP280;57147;53.582;10.112;2022-10-16T12:34:37;101350.84;;;17.83
69857;BMP280;57147;53.582;10.112;2022-10-16T12:39:41;101356.97;;;17.04
69857;BMP280;57147;53.582;10.112;2022-10-16T12:44:42;101358.19;;;17.15
69857;BMP280;57147;53.582;10.112;2022-10-16T12:49:48;101372.53;;;17.19
69857;BMP280;57147;53.582;10.112;2022-10-16T12:54:56;101381.16;;;17.33
69857;BMP280;57147;53.582;10.112;2022-10-16T13:00:03;101387.66;;;17.62
69857;BMP280;57147;53.582;10.112;2022-10-16T13:05:18;101392.59;;;17.13
69857;BMP280;57147;53.582;10.112;2022-10-16T13:10:30;101384.97;;;17.32
69857;BMP280;57147;53.582;10.112;2022-10-16T13:15:45;101387.53;;;17.20
69857;BMP280;57147;53.582;10.112;2022-10-16T13:20:59;101399.03;;;16.83
69857;BMP280;57147;53.582;10.112;2022-10-16T13:26:17;101406.66;;;17.10
69857;BMP280;57147;53.582;10.112;2022-10-16T13:31:22;101429.31;;;16.92
69857;BMP280;57147;53.582;10.112;2022-10-16T13:36:26;101428.97;;;17.02
69857;BMP280;57147;53.582;10.112;2022-10-16T13:41:30;101431.34;;;17.41
69857;BMP280;57147;53.582;10.112;2022-10-16T13:46:30;101434.16;;;17.53
69857;BMP280;57147;53.582;10.112;2022-10-16T13:51:32;101439.84;;;18.02
69857;BMP280;57147;53.582;10.112;2022-10-16T13:56:35;101446.78;;;18.44
69857;BMP280;57147;53.582;10.112;2022-10-16T14:01:40;101445.09;;;18.19
69857;BMP280;57147;53.582;10.112;2022-10-16T14:06:43;101449.84;;;18.22
69857;BMP280;57147;53.582;10.112;2022-10-16T14:11:49;101463.47;;;18.17
69857;BMP280;57147;53.582;10.112;2022-10-16T14:16:51;101476.91;;;18.17
69857;BMP280;57147;53.582;10.112;2022-10-16T14:21:51;101482.03;;;18.01
69857;BMP280;57147;53.582;10.112;2022-10-16T14:26:55;101491.09;;;17.97
69857;BMP280;57147;53.582;10.112;2022-10-16T14:31:57;101498.59;;;18.12
69857;BMP280;57147;53.582;10.112;2022-10-16T14:36:59;101504.34;;;18.02
69857;BMP280;57147;53.582;10.112;2022-10-16T14:42:03;101521.25;;;17.82
69857;BMP280;57147;53.582;10.112;2022-10-16T14:47:08;101510.34;;;17.23
69857;BMP280;57147;53.582;10.112;2022-10-16T14:52:10;101515.72;;;17.23
69857;BMP280;57147;53.582;10.112;2022-10-16T14:57:19;101525.06;;;17.00
69857;BMP280;57147;53.582;10.112;2022-10-16T15:02:30;101524.78;;;16.67
69857;BMP280;57147;53.582;10.112;2022-10-16T15:07:31;101520.19;;;16.68
69857;BMP280;57147;53.582;10.112;2022-10-16T15:12:34;101542.91;;;16.61
69857;BMP280;57147;53.582;10.112;2022-10-16T15:17:35;101544.91;;;16.30
69857;BMP280;57147;53.582;10.112;2022-10-16T15:22:35;101553.06;;;16.16
69857;BMP280;57147;53.582;10.112;2022-10-16T15:27:38;101556.47;;;16.00
69857;BMP280;57147;53.582;10.112;2022-10-16T15:32:39;101557.69;;;15.85
69857;BMP280;57147;53.582;10.112;2022-10-16T15:37:39;101559.16;;;15.69
69857;BMP280;57147;53.582;10.112;2022-10-16T15:42:43;101563.34;;;15.61
69857;BMP280;57147;53.582;10.112;2022-10-16T15:47:43;101574.16;;;15.48
69857;BMP280;57147;53.582;10.112;2022-10-16T15:52:44;101583.94;;;15.30
69857;BMP280;57147;53.582;10.112;2022-10-16T15:57:47;101585.88;;;15.16
69857;BMP280;57147;53.582;10.112;2022-10-16T16:02:51;101593.63;;;15.17
69857;BMP280;57147;53.582;10.112;2022-10-16T16:07:52;101609.22;;;15.02
69857;BMP280;57147;53.582;10.112;2022-10-16T16:12:55;101608.56;;;14.82
69857;BMP280;57147;53.582;10.112;2022-10-16T16:17:55;101613.09;;;14.68
69857;BMP280;57147;53.582;10.112;2022-10-16T16:22:56;101617.47;;;14.64
69857;BMP280;57147;53.582;10.112;2022-10-16T16:27:59;101627.44;;;14.45
69857;BMP280;57147;53.582;10.112;2022-10-16T16:33:00;101620.13;;;14.23
69857;BMP280;57147;53.582;10.112;2022-10-16T16:38:00;101648.59;;;14.14
69857;BMP280;57147;53.582;10.112;2022-10-16T16:43:03;101649.94;;;13.98
69857;BMP280;57147;53.582;10.112;2022-10-16T16:48:04;101655.03;;;13.81
69857;BMP280;57147;53.582;10.112;2022-10-16T16:53:05;101668.22;;;13.72
69857;BMP280;57147;53.582;10.112;2022-10-16T16:58:08;101673.06;;;13.51
69857;BMP280;57147;53.582;10.112;2022-10-16T17:03:09;101684.81;;;13.32
69857;BMP280;57147;53.582;10.112;2022-10-16T17:08:09;101696.34;;;13.27
69857;BMP280;57147;53.582;10.112;2022-10-16T17:13:12;101701.75;;;13.22
69857;BMP280;57147;53.582;10.112;2022-10-16T17:18:13;101699.53;;;13.05
69857;BMP280;57147;53.582;10.112;2022-10-16T17:23:15;101710.81;;;12.97
69857;BMP280;57147;53.582;10.112;2022-10-16T17:28:18;101712.94;;;12.71
69857;BMP280;57147;53.582;10.112;2022-10-16T17:33:19;101723.38;;;12.68
69857;BMP280;57147;53.582;10.112;2022-10-16T17:38:20;101729.25;;;12.65
69857;BMP280;57147;53.582;10.112;2022-10-16T17:43:23;101739.78;;;12.51
69857;BMP280;57147;53.582;10.112;2022-10-16T17:48:24;101753.72;;;12.43
69857;BMP280;57147;53.582;10.112;2022-10-16T17:53:24;101762.53;;;12.39
69857;BMP280;57147;53.582;10.112;2022-10-16T17:58:27;101773.25;;;12.28
69857;BMP280;57147;53.582;10.112;2022-10-16T18:03:28;101783.41;;;12.21
69857;BMP280;57147;53.582;10.112;2022-10-16T18:08:29;101774.97;;;12.09
69857;BMP280;57147;53.582;10.112;2022-10-16T18:13:32;101774.28;;;12.32
69857;BMP280;57147;53.582;10.112;2022-10-16T18:18:33;101790.75;;;12.40
69857;BMP280;57147;53.582;10.112;2022-10-16T18:23:34;101785.41;;;12.40
69857;BMP280;57147;53.582;10.112;2022-10-16T18:28:47;101796.19;;;12.24
69857;BMP280;57147;53.582;10.112;2022-10-16T18:34:06;101804.72;;;12.21
69857;BMP280;57147;53.582;10.112;2022-10-16T18:39:21;101813.75;;;12.20
69857;BMP280;57147;53.582;10.112;2022-10-16T18:44:43;101824.97;;;12.17
69857;BMP280;57147;53.582;10.112;2022-10-16T18:50:02;101812.22;;;12.09
69857;BMP280;57147;53.582;10.112;2022-10-16T18:55:22;101823.41;;;12.11
69857;BMP280;57147;53.582;10.112;2022-10-16T19:00:54;101831.94;;;12.08
69857;BMP280;57147;53.582;10.112;2022-10-16T19:06:22;101824.75;;;12.09
69857;BMP280;57147;53.582;10.112;2022-10-16T19:11:35;101822.34;;;12.07
69857;BMP280;57147;53.582;10.112;2022-10-16T19:16:53;101831.72;;;11.94
69857;BMP280;57147;53.582;10.112;2022-10-16T19:27:37;101842.75;;;11.78
69857;BMP280;57147;53.582;10.112;2022-10-16T19:33:20;101844.63;;;11.67
69857;BMP280;57147;53.582;10.112;2022-10-16T19:38:30;101833.75;;;11.59
69857;BMP280;57147;53.582;10.112;2022-10-16T19:43:41;101850.72;;;11.68
69857;BMP280;57147;53.582;10.112;2022-10-16T19:48:59;101857.66;;;11.69
69857;BMP280;57147;53.582;10.112;2022-10-16T19:54:28;101868.03;;;11.70
69857;BMP280;57147;53.582;10.112;2022-10-16T19:59:36;101881.06;;;11.72
69857;BMP280;57147;53.582;10.112;2022-10-16T20:04:44;101877.88;;;11.70
69857;BMP280;57147;53.582;10.112;2022-10-16T20:09:55;101871.78;;;11.59
69857;BMP280;57147;53.582;10.112;2022-10-16T20:14:56;101867.00;;;11.66
69857;BMP280;57147;53.582;10.112;2022-10-16T20:20:06;101874.44;;;11.64
69857;BMP280;57147;53.582;10.112;2022-10-16T20:25:12;101874.44;;;11.64
69857;BMP280;57147;53.582;10.112;2022-10-16T20:30:16;101882.69;;;11.63
69857;BMP280;57147;53.582;10.112;2022-10-16T20:35:19;101884.81;;;11.66
69857;BMP280;57147;53.582;10.112;2022-10-16T20:40:21;101883.47;;;11.73
69857;BMP280;57147;53.582;10.112;2022-10-16T20:45:45;101896.25;;;11.66
69857;BMP280;57147;53.582;10.112;2022-10-16T20:50:59;101904.25;;;11.66
69857;BMP280;57147;53.582;10.112;2022-10-16T20:56:00;101895.44;;;11.61
69857;BMP280;57147;53.582;10.112;2022-10-16T21:01:18;101893.34;;;11.52
69857;BMP280;57147;53.582;10.112;2022-10-16T21:06:22;101901.56;;;11.61
69857;BMP280;57147;53.582;10.112;2022-10-16T21:11:32;101913.00;;;11.57
69857;BMP280;57147;53.582;10.112;2022-10-16T21:16:42;101929.00;;;11.51
69857;BMP280;57147;53.582;10.112;2022-10-16T21:21:46;101936.69;;;11.38
69857;BMP280;57147;53.582;10.112;2022-10-16T21:26:57;101940.16;;;11.43
69857;BMP280;57147;53.582;10.112;2022-10-16T21:32:01;101942.56;;;11.40
69857;BMP280;57147;53.582;10.112;2022-10-16T21:37:08;101934.84;;;11.38
69857;BMP280;57147;53.582;10.112;2022-10-16T21:42:12;101956.09;;;11.28
69857;BMP280;57147;53.582;10.112;2022-10-16T21:47:16;101950.25;;;11.31
69857;BMP280;57147;53.582;10.112;2022-10-16T21:52:20;101924.22;;;11.38
69857;BMP280;57147;53.582;10.112;2022-10-16T21:57:25;101948.13;;;11.28
69857;BMP280;57147;53.582;10.112;2022-10-16T22:02:27;101952.91;;;11.26
69857;BMP280;57147;53.582;10.112;2022-10-16T22:07:31;101952.94;;;11.31
69857;BMP280;57147;53.582;10.112;2022-10-16T22:12:34;101943.34;;;11.30
69857;BMP280;57147;53.582;10.112;2022-10-16T22:17:38;101949.72;;;11.24
69857;BMP280;57147;53.582;10.112;2022-10-16T22:22:41;101957.69;;;11.29
69857;BMP280;57147;53.582;10.112;2022-10-16T22:27:42;101948.13;;;11.33
69857;BMP280;57147;53.582;10.112;2022-10-16T22:32:44;101949.47;;;11.36
69857;BMP280;57147;53.582;10.112;2022-10-16T22:37:47;101938.00;;;11.40
69857;BMP280;57147;53.582;10.112;2022-10-16T22:42:50;101936.97;;;11.46
69857;BMP280;57147;53.582;10.112;2022-10-16T22:47:57;101924.72;;;11.56
69857;BMP280;57147;53.582;10.112;2022-10-16T22:53:06;101939.34;;;11.58
69857;BMP280;57147;53.582;10.112;2022-10-16T22:58:07;101932.69;;;11.61
69857;BMP280;57147;53.582;10.112;2022-10-16T23:03:08;101935.38;;;11.66
69857;BMP280;57147;53.582;10.112;2022-10-16T23:08:15;101932.94;;;11.74
69857;BMP280;57147;53.582;10.112;2022-10-16T23:13:18;101935.06;;;11.77
69857;BMP280;57147;53.582;10.112;2022-10-16T23:18:25;101926.50;;;11.80
69857;BMP280;57147;53.582;10.112;2022-10-16T23:23:35;101916.44;;;11.77
69857;BMP280;57147;53.582;10.112;2022-10-16T23:28:37;101908.41;;;11.82
69857;BMP280;57147;53.582;10.112;2022-10-16T23:33:46;101905.03;;;11.67
69857;BMP280;57147;53.582;10.112;2022-10-16T23:38:57;101894.16;;;11.53
69857;BMP280;57147;53.582;10.112;2022-10-16T23:44:06;101877.34;;;11.63
69857;BMP280;57147;53.582;10.112;2022-10-16T23:49:07;101855.53;;;11.61
69857;BMP280;57147;53.582;10.112;2022-10-16T23:54:12;101850.25;;;11.56
69857;BMP280;57147;53.582;10.112;2022-10-16T23:59:13;101833.75;;;11.59
